createdAt,value
2022-08-04T00:01:37.318Z,101086.59
2022-08-04T00:04:15.059Z,101081.00
2022-08-04T00:07:44.625Z,101083.47
2022-08-04T00:10:17.258Z,101081.19
2022-08-04T00:12:52.328Z,101081.00
2022-08-04T00:15:20.359Z,101081.88
2022-08-04T00:17:54.951Z,101085.13
2022-08-04T00:20:22.301Z,101083.38
2022-08-04T00:22:52.587Z,101082.00
2022-08-04T00:25:20.080Z,101075.88
2022-08-04T00:27:47.585Z,101076.81
2022-08-04T00:30:14.703Z,101071.28
2022-08-04T00:32:42.202Z,101068.00
2022-08-04T00:35:15.230Z,101068.94
2022-08-04T00:37:45.751Z,101065.25
2022-08-04T00:40:43.447Z,101060.47
2022-08-04T00:43:34.213Z,101054.94
2022-08-04T00:46:33.721Z,101064.00
2022-08-04T00:49:33.412Z,101068.72
2022-08-04T00:52:31.781Z,101064.00
2022-08-04T00:55:23.358Z,101072.06
2022-08-04T00:58:16.544Z,101062.25
2022-08-04T01:01:03.046Z,101053.78
2022-08-04T01:03:58.220Z,101062.44
2022-08-04T01:06:56.547Z,101061.47
2022-08-04T01:09:59.660Z,101053.03
2022-08-04T01:12:38.628Z,101053.38
2022-08-04T01:15:59.902Z,101053.88
2022-08-04T01:19:02.892Z,101055.38
2022-08-04T01:21:29.754Z,101048.81
2022-08-04T01:24:23.919Z,101046.66
2022-08-04T01:27:10.395Z,101047.28
2022-08-04T01:29:59.216Z,101051.75
2022-08-04T01:32:38.898Z,101052.16
2022-08-04T01:35:15.394Z,101052.69
2022-08-04T01:38:20.154Z,101050.66
2022-08-04T01:40:54.226Z,101045.25
2022-08-04T01:43:22.508Z,101042.75
2022-08-04T01:45:59.805Z,101040.38
2022-08-04T01:48:28.715Z,101041.78
2022-08-04T01:51:09.867Z,101035.41
2022-08-04T01:53:40.909Z,101040.09
2022-08-04T01:56:10.467Z,101037.88
2022-08-04T01:58:40.272Z,101035.19
2022-08-04T02:01:11.051Z,101027.97
2022-08-04T02:04:20.971Z,101031.41
2022-08-04T02:07:08.590Z,101015.88
2022-08-04T02:10:22.092Z,101018.13
2022-08-04T02:13:25.603Z,101014.06
2022-08-04T02:16:05.068Z,101007.69
2022-08-04T02:18:36.682Z,101008.03
2022-08-04T02:21:04.635Z,101002.44
2022-08-04T02:23:43.433Z,101012.38
2022-08-04T02:26:22.718Z,101004.41
2022-08-04T02:29:18.152Z,101002.09
2022-08-04T02:32:14.466Z,100991.72
2022-08-04T02:35:07.335Z,100987.25
2022-08-04T02:37:35.781Z,100990.28
2022-08-04T02:40:06.912Z,100989.66
2022-08-04T02:42:34.541Z,100994.31
2022-08-04T02:45:02.969Z,101001.13
2022-08-04T02:48:29.506Z,101006.97
2022-08-04T02:50:28.616Z,101012.84
2022-08-04T02:52:58.971Z,101001.38
2022-08-04T02:55:29.401Z,101010.34
2022-08-04T02:57:59.459Z,101000.50
2022-08-04T03:00:27.016Z,101006.53
2022-08-04T03:03:09.120Z,101019.00
2022-08-04T03:06:10.112Z,101013.38
2022-08-04T03:09:14.865Z,101018.47
2022-08-04T03:12:11.573Z,101015.75
2022-08-04T03:15:22.091Z,101025.69
2022-08-04T03:18:36.231Z,101019.72
2022-08-04T03:21:30.452Z,101013.03
2022-08-04T03:24:20.173Z,101010.69
2022-08-04T03:27:16.510Z,101011.03
2022-08-04T03:30:06.987Z,101021.38
2022-08-04T03:33:25.435Z,101010.97
2022-08-04T03:36:18.903Z,101018.44
2022-08-04T03:39:07.080Z,101014.56
2022-08-04T03:42:16.708Z,101015.47
2022-08-04T03:45:24.114Z,101017.88
2022-08-04T03:48:36.071Z,101023.50
2022-08-04T03:52:21.772Z,101015.41
2022-08-04T03:55:09.690Z,101010.09
2022-08-04T03:58:11.760Z,101007.81
2022-08-04T04:01:13.596Z,101033.84
2022-08-04T04:04:20.539Z,101033.06
2022-08-04T04:07:04.753Z,101017.94
2022-08-04T04:10:05.912Z,101032.38
2022-08-04T04:13:34.906Z,101037.88
2022-08-04T04:16:31.581Z,101024.31
2022-08-04T04:19:01.325Z,101019.66
2022-08-04T04:21:44.847Z,101016.31
2022-08-04T04:24:33.988Z,101011.47
2022-08-04T04:27:48.977Z,101020.69
2022-08-04T04:30:44.627Z,101024.41
2022-08-04T04:33:45.232Z,101031.69
2022-08-04T04:36:46.261Z,101012.59
2022-08-04T04:39:50.920Z,101021.34
2022-08-04T04:42:48.166Z,101015.63
2022-08-04T04:45:54.352Z,101026.03
2022-08-04T04:48:30.054Z,101024.75
2022-08-04T04:51:40.253Z,101030.13
2022-08-04T04:54:26.438Z,101032.06
2022-08-04T04:57:16.318Z,101041.38
2022-08-04T05:00:09.610Z,101045.00
2022-08-04T05:02:42.301Z,101044.13
2022-08-04T05:05:38.405Z,101049.44
2022-08-04T05:08:43.927Z,101062.53
2022-08-04T05:11:46.329Z,101057.75
2022-08-04T05:14:41.475Z,101066.03
2022-08-04T05:17:27.540Z,101068.19
2022-08-04T05:20:15.426Z,101068.44
2022-08-04T05:23:01.098Z,101062.53
2022-08-04T05:25:39.162Z,101059.91
2022-08-04T05:28:15.630Z,101072.63
2022-08-04T05:30:53.086Z,101081.09
2022-08-04T05:33:48.040Z,101077.41
2022-08-04T05:36:39.477Z,101086.00
2022-08-04T05:39:29.883Z,101090.34
2022-08-04T05:42:04.438Z,101085.50
2022-08-04T05:44:33.367Z,101087.78
2022-08-04T05:47:01.276Z,101089.50
2022-08-04T05:49:29.415Z,101096.56
2022-08-04T05:52:01.404Z,101093.81
2022-08-04T05:54:31.573Z,101094.63
2022-08-04T05:56:59.164Z,101096.31
2022-08-04T05:59:27.963Z,101098.88
2022-08-04T06:01:58.375Z,101103.78
2022-08-04T06:04:49.240Z,101103.22
2022-08-04T06:07:16.408Z,101099.78
2022-08-04T06:09:43.575Z,101099.25
2022-08-04T06:12:28.330Z,101108.81
2022-08-04T06:14:59.769Z,101106.38
2022-08-04T06:18:35.496Z,101106.16
2022-08-04T06:20:32.828Z,101114.44
2022-08-04T06:23:14.680Z,101114.56
2022-08-04T06:25:51.587Z,101119.75
2022-08-04T06:28:20.028Z,101120.56
2022-08-04T06:30:49.942Z,101126.19
2022-08-04T06:33:54.269Z,101125.69
2022-08-04T06:36:22.304Z,101121.38
2022-08-04T06:38:58.405Z,101127.22
2022-08-04T06:41:28.779Z,101122.16
2022-08-04T06:43:59.765Z,101127.03
2022-08-04T06:46:28.391Z,101120.72
2022-08-04T06:48:56.338Z,101125.25
2022-08-04T06:51:37.033Z,101127.44
2022-08-04T06:54:06.242Z,101133.28
2022-08-04T06:56:36.658Z,101144.53
2022-08-04T06:59:04.317Z,101158.19
2022-08-04T07:01:32.923Z,101159.94
2022-08-04T07:04:00.350Z,101150.09
2022-08-04T07:06:27.486Z,101140.50
2022-08-04T07:08:56.419Z,101141.97
2022-08-04T07:11:23.897Z,101142.97
2022-08-04T07:13:51.498Z,101157.72
2022-08-04T07:16:21.363Z,101156.75
2022-08-04T07:18:58.032Z,101165.16
2022-08-04T07:21:37.551Z,101152.53
2022-08-04T07:24:05.048Z,101161.53
2022-08-04T07:26:32.024Z,101161.75
2022-08-04T07:28:59.678Z,101166.00
2022-08-04T07:31:35.232Z,101159.53
2022-08-04T07:34:21.034Z,101160.84
2022-08-04T07:36:55.535Z,101178.94
2022-08-04T07:39:28.008Z,101176.63
2022-08-04T07:42:01.594Z,101174.28
2022-08-04T07:44:33.897Z,101170.47
2022-08-04T07:47:03.949Z,101170.59
2022-08-04T07:49:55.168Z,101170.34
2022-08-04T07:52:18.658Z,101190.25
2022-08-04T07:54:46.758Z,101206.75
2022-08-04T07:57:39.633Z,101205.69
2022-08-04T08:00:00.650Z,101197.28
2022-08-04T08:02:28.451Z,101188.41
2022-08-04T08:04:55.995Z,101183.22
2022-08-04T08:07:23.278Z,101164.06
2022-08-04T08:09:50.711Z,101192.91
2022-08-04T08:12:35.298Z,101192.78
2022-08-04T08:15:10.337Z,101190.94
2022-08-04T08:17:58.384Z,101204.72
2022-08-04T08:20:31.262Z,101207.47
2022-08-04T08:22:59.994Z,101182.72
2022-08-04T08:25:27.270Z,101190.16
2022-08-04T08:27:55.710Z,101189.25
2022-08-04T08:30:25.146Z,101180.91
2022-08-04T08:33:01.609Z,101185.56
2022-08-04T08:35:34.766Z,101177.97
2022-08-04T08:38:10.700Z,101191.56
2022-08-04T08:41:26.294Z,101164.34
2022-08-04T08:44:37.438Z,101171.38
2022-08-04T08:47:30.530Z,101184.88
2022-08-04T08:50:58.921Z,101198.38
2022-08-04T08:53:53.105Z,101188.13
2022-08-04T08:56:37.202Z,101183.97
2022-08-04T08:59:44.927Z,101162.72
2022-08-04T09:02:41.435Z,101164.13
2022-08-04T09:05:30.271Z,101181.22
2022-08-04T09:08:20.954Z,101182.66
2022-08-04T09:11:10.753Z,101181.50
2022-08-04T09:14:01.495Z,101173.34
2022-08-04T09:16:47.740Z,101173.72
2022-08-04T09:19:46.030Z,101181.63
2022-08-04T09:22:51.015Z,101184.59
2022-08-04T09:25:27.690Z,101189.38
2022-08-04T09:28:09.607Z,101184.72
2022-08-04T09:30:49.402Z,101180.38
2022-08-04T09:33:45.573Z,101174.47
2022-08-04T09:36:26.052Z,101166.56
2022-08-04T09:39:29.623Z,101173.16
2022-08-04T09:42:23.173Z,101167.25
2022-08-04T09:45:06.498Z,101172.44
2022-08-04T09:47:48.153Z,101176.16
2022-08-04T09:50:50.023Z,101169.94
2022-08-04T09:53:53.371Z,101182.97
2022-08-04T09:56:56.936Z,101182.28
2022-08-04T09:59:43.323Z,101181.69
2022-08-04T10:02:14.051Z,101173.00
2022-08-04T10:04:43.885Z,101179.59
2022-08-04T10:08:04.659Z,101179.97
2022-08-04T10:10:53.350Z,101182.00
2022-08-04T10:13:31.372Z,101179.88
2022-08-04T10:16:22.940Z,101182.28
2022-08-04T10:19:13.145Z,101180.56
2022-08-04T10:22:30.643Z,101185.59
2022-08-04T10:26:03.182Z,101170.84
2022-08-04T10:28:06.571Z,101178.66
2022-08-04T10:30:37.244Z,101174.34
2022-08-04T10:33:16.272Z,101181.19
2022-08-04T10:35:52.522Z,101177.56
2022-08-04T10:38:33.769Z,101191.84
2022-08-04T10:41:40.318Z,101191.41
2022-08-04T10:44:41.902Z,101186.59
2022-08-04T10:47:21.009Z,101185.16
2022-08-04T10:49:55.542Z,101189.78
2022-08-04T10:52:43.365Z,101182.19
2022-08-04T10:56:07.226Z,101186.25
2022-08-04T10:58:20.699Z,101182.38
2022-08-04T11:00:49.255Z,101177.84
2022-08-04T11:03:50.047Z,101189.91
2022-08-04T11:06:19.007Z,101185.16
2022-08-04T11:08:52.163Z,101198.34
2022-08-04T11:11:57.034Z,101184.84
2022-08-04T11:14:36.181Z,101189.31
2022-08-04T11:17:28.310Z,101192.50
2022-08-04T11:20:34.713Z,101189.88
2022-08-04T11:23:16.504Z,101185.25
2022-08-04T11:26:24.263Z,101197.16
2022-08-04T11:29:46.383Z,101191.03
2022-08-04T11:32:21.305Z,101190.03
2022-08-04T11:34:58.180Z,101192.81
2022-08-04T11:37:52.071Z,101190.03
2022-08-04T11:40:40.433Z,101197.31
2022-08-04T11:44:01.110Z,101203.47
2022-08-04T11:46:30.948Z,101196.69
2022-08-04T11:49:06.088Z,101199.84
2022-08-04T11:51:34.453Z,101202.59
2022-08-04T11:54:02.062Z,101199.31
2022-08-04T11:56:37.242Z,101202.91
2022-08-04T11:59:10.152Z,101201.25
2022-08-04T12:02:07.768Z,101190.16
2022-08-04T12:04:58.237Z,101187.91
2022-08-04T12:07:55.757Z,101194.50
2022-08-04T12:10:52.424Z,101192.72
2022-08-04T12:13:58.751Z,101201.81
2022-08-04T12:19:30.969Z,101203.25
2022-08-04T12:22:14.908Z,101203.78
2022-08-04T12:24:59.770Z,101206.38
2022-08-04T12:27:45.294Z,101202.78
2022-08-04T12:31:00.012Z,101197.69
2022-08-04T12:33:18.013Z,101200.28
2022-08-04T12:36:20.606Z,101196.91
2022-08-04T12:39:03.509Z,101202.22
2022-08-04T12:41:58.763Z,101197.09
2022-08-04T12:44:36.851Z,101203.13
2022-08-04T12:47:36.493Z,101199.41
2022-08-04T12:50:02.335Z,101193.75
2022-08-04T12:53:03.626Z,101199.00
2022-08-04T12:55:34.376Z,101194.84
2022-08-04T12:58:10.423Z,101199.88
2022-08-04T13:00:41.615Z,101189.88
2022-08-04T13:03:16.811Z,101190.53
2022-08-04T13:05:45.322Z,101192.41
2022-08-04T13:08:15.533Z,101178.31
2022-08-04T13:10:48.013Z,101180.00
2022-08-04T13:13:22.058Z,101187.47
2022-08-04T13:16:05.689Z,101184.72
2022-08-04T13:18:40.238Z,101181.50
2022-08-04T13:21:50.100Z,101188.16
2022-08-04T13:24:31.051Z,101179.63
2022-08-04T13:27:06.810Z,101173.94
2022-08-04T13:29:58.804Z,101181.22
2022-08-04T13:32:29.216Z,101168.94
2022-08-04T13:34:58.634Z,101171.78
2022-08-04T13:37:32.363Z,101173.03
2022-08-04T13:40:00.335Z,101170.41
2022-08-04T13:42:28.403Z,101180.19
2022-08-04T13:44:59.886Z,101174.19
2022-08-04T13:47:34.957Z,101168.00
2022-08-04T13:50:27.510Z,101164.34
2022-08-04T13:52:57.705Z,101166.00
2022-08-04T13:55:31.371Z,101178.97
2022-08-04T13:58:25.631Z,101166.28
2022-08-04T14:01:06.282Z,101181.06
2022-08-04T14:03:54.369Z,101177.41
2022-08-04T14:06:28.516Z,101169.72
2022-08-04T14:09:14.776Z,101163.84
2022-08-04T14:12:07.017Z,101160.69
2022-08-04T14:14:35.768Z,101158.28
2022-08-04T14:17:20.006Z,101158.50
2022-08-04T14:19:53.692Z,101157.75
2022-08-04T14:22:26.921Z,101157.47
2022-08-04T14:25:07.355Z,101158.91
2022-08-04T14:27:57.463Z,101157.31
2022-08-04T14:30:35.474Z,101150.38
2022-08-04T14:34:01.550Z,101152.69
2022-08-04T14:36:04.224Z,101142.91
2022-08-04T14:38:48.459Z,101149.13
2022-08-04T14:41:17.773Z,101154.22
2022-08-04T14:43:52.704Z,101148.19
2022-08-04T14:46:21.261Z,101144.84
2022-08-04T14:49:10.331Z,101144.72
2022-08-04T14:51:52.551Z,101148.19
2022-08-04T14:54:30.389Z,101139.19
2022-08-04T14:57:05.164Z,101136.19
2022-08-04T14:59:44.164Z,101137.91
2022-08-04T15:02:29.624Z,101133.94
2022-08-04T15:04:58.883Z,101145.53
2022-08-04T15:07:26.858Z,101143.16
2022-08-04T15:09:54.479Z,101148.03
2022-08-04T15:12:22.273Z,101136.31
2022-08-04T15:14:49.572Z,101145.47
2022-08-04T15:17:29.381Z,101143.34
2022-08-04T15:19:58.497Z,101147.56
2022-08-04T15:22:25.666Z,101153.84
2022-08-04T15:24:55.619Z,101150.44
2022-08-04T15:27:30.912Z,101152.09
2022-08-04T15:30:02.627Z,101157.06
2022-08-04T15:32:36.496Z,101157.66
2022-08-04T15:35:12.992Z,101147.03
2022-08-04T15:38:06.402Z,101148.75
2022-08-04T15:40:55.674Z,101151.84
2022-08-04T15:43:47.125Z,101162.69
2022-08-04T15:46:47.689Z,101160.34
2022-08-04T15:49:23.143Z,101162.63
2022-08-04T15:52:12.508Z,101164.94
2022-08-04T15:54:42.238Z,101168.81
2022-08-04T15:58:01.572Z,101164.97
2022-08-04T16:00:29.453Z,101170.81
2022-08-04T16:02:56.526Z,101175.28
2022-08-04T16:05:23.553Z,101170.72
2022-08-04T16:08:15.428Z,101174.25
2022-08-04T16:10:45.564Z,101182.84
2022-08-04T16:13:16.368Z,101188.28
2022-08-04T16:15:55.510Z,101172.09
2022-08-04T16:18:31.489Z,101166.16
2022-08-04T16:21:03.439Z,101181.34
2022-08-04T16:23:55.157Z,101179.63
2022-08-04T16:27:00.561Z,101168.28
2022-08-04T16:29:39.418Z,101169.00
2022-08-04T16:32:07.049Z,101176.72
2022-08-04T16:34:55.429Z,101174.25
2022-08-04T16:37:39.096Z,101182.38
2022-08-04T16:40:34.393Z,101188.28
2022-08-04T16:43:30.754Z,101186.84
2022-08-04T16:46:03.673Z,101191.63
2022-08-04T16:48:33.587Z,101191.38
2022-08-04T16:51:06.758Z,101186.75
2022-08-04T16:54:03.416Z,101184.94
2022-08-04T16:56:35.338Z,101189.97
2022-08-04T16:59:10.431Z,101191.25
2022-08-04T17:01:48.391Z,101193.94
2022-08-04T17:04:16.800Z,101190.38
2022-08-04T17:06:49.376Z,101198.09
2022-08-04T17:09:18.885Z,101202.66
2022-08-04T17:11:47.796Z,101201.41
2022-08-04T17:14:23.687Z,101199.72
2022-08-04T17:16:52.230Z,101201.91
2022-08-04T17:19:26.121Z,101213.28
2022-08-04T17:22:10.177Z,101215.69
2022-08-04T17:24:40.973Z,101224.63
2022-08-04T17:28:19.101Z,101231.66
2022-08-04T17:29:55.937Z,101221.28
2022-08-04T17:32:23.839Z,101229.56
2022-08-04T17:34:58.530Z,101234.69
2022-08-04T17:37:39.801Z,101232.50
2022-08-04T17:40:18.570Z,101243.00
2022-08-04T17:44:03.431Z,101256.19
2022-08-04T17:46:28.678Z,101258.47
2022-08-04T17:49:16.519Z,101264.53
2022-08-04T17:52:06.811Z,101262.13
2022-08-04T17:54:40.526Z,101278.34
2022-08-04T17:57:22.296Z,101284.78
2022-08-04T17:59:59.599Z,101289.88
2022-08-04T18:02:34.889Z,101298.09
2022-08-04T18:05:11.703Z,101299.81
2022-08-04T18:08:42.825Z,101299.06
2022-08-04T18:10:52.714Z,101316.31
2022-08-04T18:13:28.126Z,101322.13
2022-08-04T18:16:06.206Z,101322.88
2022-08-04T18:18:41.758Z,101328.66
2022-08-04T18:21:16.067Z,101331.88
2022-08-04T18:23:50.476Z,101330.31
2022-08-04T18:26:18.278Z,101333.81
2022-08-04T18:28:51.108Z,101329.72
2022-08-04T18:31:18.056Z,101329.16
2022-08-04T18:33:57.230Z,101328.03
2022-08-04T18:36:33.133Z,101312.63
2022-08-04T18:39:11.929Z,101304.16
2022-08-04T18:42:02.561Z,101309.59
2022-08-04T18:44:29.357Z,101296.31
2022-08-04T18:46:57.809Z,101286.09
2022-08-04T18:50:49.749Z,101296.28
2022-08-04T18:52:33.206Z,101281.59
2022-08-04T18:55:01.847Z,101277.63
2022-08-04T18:57:59.767Z,101265.09
2022-08-04T19:00:19.798Z,101271.31
2022-08-04T19:02:47.628Z,101271.59
2022-08-04T19:05:17.183Z,101280.97
2022-08-04T19:08:02.073Z,101273.88
2022-08-04T19:10:31.993Z,101279.78
2022-08-04T19:12:59.406Z,101286.88
2022-08-04T19:15:34.667Z,101289.38
2022-08-04T19:18:02.568Z,101298.13
2022-08-04T19:20:34.391Z,101301.53
2022-08-04T19:24:28.151Z,101312.38
2022-08-04T19:26:03.950Z,101319.34
2022-08-04T19:28:35.178Z,101320.31
2022-08-04T19:31:07.763Z,101321.00
2022-08-04T19:33:58.929Z,101318.88
2022-08-04T19:36:27.978Z,101310.63
2022-08-04T19:39:02.228Z,101318.06
2022-08-04T19:41:31.273Z,101315.38
2022-08-04T19:43:58.539Z,101302.41
2022-08-04T19:46:28.630Z,101325.69
2022-08-04T19:48:59.071Z,101313.47
2022-08-04T19:51:32.917Z,101307.88
2022-08-04T19:56:48.739Z,101320.28
2022-08-04T19:59:15.742Z,101321.91
2022-08-04T20:01:45.634Z,101324.72
2022-08-04T20:04:14.614Z,101316.88
2022-08-04T20:06:43.109Z,101304.25
2022-08-04T20:09:25.618Z,101315.06
2022-08-04T20:11:55.927Z,101316.13
2022-08-04T20:14:32.478Z,101326.53
2022-08-04T20:17:03.201Z,101328.84
2022-08-04T20:19:38.839Z,101333.16
2022-08-04T20:22:50.494Z,101343.00
2022-08-04T20:25:01.054Z,101341.50
2022-08-04T20:27:59.229Z,101346.06
2022-08-04T20:30:28.942Z,101355.22
2022-08-04T20:32:56.426Z,101349.94
2022-08-04T20:35:26.906Z,101346.50
2022-08-04T20:38:00.195Z,101358.88
2022-08-04T20:40:30.437Z,101343.53
2022-08-04T20:42:59.634Z,101345.38
2022-08-04T20:45:55.857Z,101345.69
2022-08-04T20:48:14.242Z,101347.72
2022-08-04T20:50:42.601Z,101338.03
2022-08-04T20:53:16.151Z,101346.44
2022-08-04T20:55:55.274Z,101337.25
2022-08-04T20:58:27.343Z,101334.31
2022-08-04T21:00:55.891Z,101343.34
2022-08-04T21:03:49.272Z,101346.75
2022-08-04T21:06:11.166Z,101323.81
2022-08-04T21:08:38.670Z,101330.78
2022-08-04T21:11:06.994Z,101322.56
2022-08-04T21:13:52.252Z,101326.91
2022-08-04T21:16:54.158Z,101318.25
2022-08-04T21:19:13.695Z,101315.28
2022-08-04T21:21:42.369Z,101314.03
2022-08-04T21:24:09.982Z,101319.50
2022-08-04T21:26:42.779Z,101323.75
2022-08-04T21:29:10.179Z,101321.72
2022-08-04T21:31:50.196Z,101328.00
2022-08-04T21:34:39.618Z,101334.09
2022-08-04T21:37:05.577Z,101335.56
2022-08-04T21:39:32.884Z,101335.44
2022-08-04T21:42:29.363Z,101339.41
2022-08-04T21:44:58.113Z,101342.34
2022-08-04T21:47:25.205Z,101333.59
2022-08-04T21:49:56.269Z,101335.91
2022-08-04T21:52:24.435Z,101345.91
2022-08-04T21:54:54.548Z,101341.97
2022-08-04T22:00:10.822Z,101330.88
2022-08-04T22:02:45.426Z,101336.66
2022-08-04T22:05:15.770Z,101337.59
2022-08-04T22:07:50.078Z,101341.41
2022-08-04T22:10:18.580Z,101342.78
2022-08-04T22:12:59.773Z,101332.06
2022-08-04T22:16:03.451Z,101335.34
2022-08-04T22:18:21.047Z,101327.66
2022-08-04T22:20:52.048Z,101334.72
2022-08-04T22:23:23.158Z,101332.84
2022-08-04T22:25:55.383Z,101338.97
2022-08-04T22:28:27.836Z,101335.91
2022-08-04T22:30:57.335Z,101335.50
2022-08-04T22:33:55.257Z,101331.59
2022-08-04T22:36:14.732Z,101326.25
2022-08-04T22:38:50.209Z,101319.78
2022-08-04T22:41:33.874Z,101317.22
2022-08-04T22:44:01.487Z,101310.03
2022-08-04T22:46:33.569Z,101318.94
2022-08-04T22:49:00.650Z,101307.19
2022-08-04T22:51:27.618Z,101303.88
2022-08-04T22:53:54.551Z,101294.00
2022-08-04T22:56:38.047Z,101296.91
2022-08-04T22:59:10.037Z,101286.25
2022-08-04T23:02:00.701Z,101284.72
2022-08-04T23:04:33.371Z,101277.28
2022-08-04T23:07:09.018Z,101283.34
2022-08-04T23:09:51.105Z,101269.88
2022-08-04T23:12:27.311Z,101288.13
2022-08-04T23:14:56.968Z,101304.78
2022-08-04T23:17:25.439Z,101305.25
2022-08-04T23:19:58.648Z,101318.50
2022-08-04T23:22:42.154Z,101316.28
2022-08-04T23:25:16.301Z,101306.50
2022-08-04T23:27:50.411Z,101309.88
2022-08-04T23:30:21.919Z,101310.00
2022-08-04T23:32:54.740Z,101310.94
2022-08-04T23:35:22.623Z,101307.13
2022-08-04T23:37:56.363Z,101303.38
2022-08-04T23:40:34.343Z,101320.34
2022-08-04T23:43:16.908Z,101316.03
2022-08-04T23:46:07.004Z,101320.19
2022-08-04T23:48:33.700Z,101332.84
2022-08-04T23:51:13.942Z,101336.81
2022-08-04T23:53:41.809Z,101345.47
2022-08-04T23:56:28.716Z,101346.09
2022-08-04T23:58:56.264Z,101353.66
